Aviation Digital Data Service (ADDS)

Output produced by METARs form (1521 UTC 23 January 2019)
found at http://www.aviationweather.gov/metar/data/
 
Forecast for: LSGG (GENEVA/COINTRIN , CH)
Text: TAF LSGG 231425Z 2315/2421 VRB03KT 3000 -SN OVC014 TXM00/2315Z TNM02/2406Z TX01/2415Z
Forecast period: 1500 to 2300 UTC 23 January 2019
Forecast type: FROM: standard forecast or significant change
Winds: variable direction winds at 3 MPH (3 knots; 1.5 m/s)
Visibility: 1.86 miles (2.99 km)
Ceiling: 1400 feet AGL
Clouds: overcast cloud deck at 1400 feet AGL
Weather: -SN  (light snow)
Text: TEMPO 2315/2317 1500 SN VV010
Forecast period: 1500 to 1700 UTC 23 January 2019
Forecast type: TEMPORARY: The following changes expected for less than half the time period
Visibility: 0.93 miles (1.50 km)
Ceiling: indefinite ceiling with vertical visibility of 1000 feet AGL
Clouds: obscured sky
Weather: SN  (moderate snow)
Text: BECMG 2323/2401 04008KT 6000 FEW020 BKN030
Forecast period: 2300 UTC 23 January 2019 to 2100 UTC 24 January 2019
Forecast type: BECOMING: Conditions expected to become as follows by 0100 UTC 24 January 2019
Winds: from the NE (40 degrees) at 9 MPH (8 knots; 4.1 m/s)
Visibility: 4 miles (6 km)
Ceiling: 3000 feet AGL
Clouds: few clouds at 2000 feet AGL
broken clouds at 3000 feet AGL
Weather: -SN  (light snow)